KJAX/JAX METAR and TAF weather

Enter ICAO airport designator
Station Type Date Time Source
KJAX METAR 2022/12/05 14:56 UTC NOAA

KJAX 051456Z 16004KT 10SM FEW022 OVC050 20/16 A3014 RMK AO2 SLP207 T02000161 53012


Station Type Date Time Source
KJAX Decoded METAR 2022/12/05 14:56 UTC NOAA

JACKSONVILLE INTERNATIONAL, FL, United States (KJAX) 30-30N 81-42W 7M
Dec 05, 2022 - 09:56 AM EST / 2022.12.05 1456 UTC
Wind: from the SSE (160 degrees) at 5 MPH (4 KT):0
Visibility: 10 mile(s):0
Sky conditions: overcast
Temperature: 68.0 F (20.0 C)
Dew Point: 61.0 F (16.1 C)
Relative Humidity: 78%
Pressure (altimeter): 30.14 in. Hg (1020 hPa)
Pressure tendency: 0.04 inches (1.2 hPa) higher than three hours ago
ob: KJAX 051456Z 16004KT 10SM FEW022 OVC050 20/16 A3014 RMK AO2 SLP207 T02000161 53012
cycle: 15

Station Type Date Time Source
KJAX TAF 2022/12/05 13:24 UTC NOAA

TAF
AMD KJAX 051322Z 0513/0612 VRB02KT P6SM SCT015 BKN050 BKN200
TEMPO 0513/0514 5SM BR BKN015
FM051500 VRB02KT P6SM SCT015 BKN250
FM051800 VRB04KT P6SM SCT030 BKN250
FM060400 00000KT 4SM BR BKN250
FM060800 00000KT 1/2SM FG BKN002

Example: see airport list